Date,TemperatureHighF,TemperatureAvgF,TemperatureLowF,DewpointHighF,DewpointAvgF,DewpointLowF,HumidityHigh,HumidityAvg,HumidityLow,PressureMaxIn,PressureMinIn,WindSpeedMaxMPH,WindSpeedAvgMPH,GustSpeedMaxMPH,PrecipitationSumIn
2014-1-1,32.0,28.6,25.0,-99.9,-99.9,-99.9,0,0,100,30.35,30.15,17,8,0,0.00
2014-1-2,33.0,29.4,25.0,-99.9,-99.9,-99.9,0,0,100,30.32,29.65,25,11,0,0.00
2014-1-3,30.0,16.4,8.0,-99.9,-99.9,-99.9,0,0,100,30.38,29.50,33,22,0,0.00
2014-1-4,39.0,27.3,8.0,-99.9,-99.9,-99.9,0,0,100,30.50,30.26,16,11,0,0.00
2014-1-5,45.0,37.4,31.0,-99.9,-99.9,-99.9,0,0,100,30.30,29.98,18,5,0,0.00
2014-1-6,56.0,45.8,33.0,-99.9,-99.9,-99.9,0,0,100,29.84,29.31,23,16,0,0.00
2014-1-7,33.0,19.3,13.0,-99.9,-99.9,-99.9,0,0,100,30.24,29.49,27,15,0,0.00
2014-1-8,26.0,18.1,12.0,-99.9,-99.9,-99.9,0,0,100,30.46,30.24,14,8,0,0.00
2014-1-9,31.0,22.6,21.0,-99.9,-99.9,-99.9,0,0,100,30.57,30.41,13,8,0,0.00
2014-1-10,42.0,34.7,22.0,-99.9,-99.9,-99.9,0,0,100,30.56,30.24,10,5,0,0.00
2014-1-11,57.0,48.2,40.0,-99.9,-99.9,-99.9,0,0,100,30.24,29.31,34,14,0,0.00
2014-1-12,52.0,46.1,40.0,-99.9,-99.9,-99.9,0,0,100,29.95,29.31,26,15,0,0.00
2014-1-13,48.0,42.0,36.0,-99.9,-99.9,-99.9,0,0,100,30.12,29.92,18,9,0,0.00
2014-1-14,52.0,48.9,43.0,-99.9,-99.9,-99.9,0,0,100,29.92,29.56,18,9,0,0.00
2014-1-15,47.0,42.9,39.0,-99.9,-99.9,-99.9,0,0,100,30.01,29.72,11,5,0,0.00
2014-1-17,43.0,41.1,39.0,-99.9,-99.9,-99.9,0,0,100,29.97,29.88,14,6,0,0.00
2014-1-18,41.0,38.8,36.0,-99.9,-99.9,-99.9,0,0,100,29.89,29.55,13,6,0,0.00
2014-1-19,38.0,35.6,32.0,-99.9,-99.9,-99.9,0,0,100,29.70,29.57,22,13,0,0.00
2014-1-20,46.0,41.1,34.0,-99.9,-99.9,-99.9,0,0,100,29.79,29.48,25,12,0,0.00
2014-1-21,34.0,22.9,18.0,-99.9,-99.9,-99.9,0,0,100,29.99,29.74,23,13,0,0.00
2014-1-22,21.0,17.1,14.0,-99.9,-99.9,-99.9,0,0,100,29.84,29.53,30,20,0,0.00
2014-1-23,25.0,16.5,10.0,-99.9,-99.9,-99.9,0,0,100,30.14,29.83,19,11,0,0.00
2014-1-24,21.0,16.4,12.0,-99.9,-99.9,-99.9,0,0,100,30.23,30.07,22,12,0,0.00
2014-1-25,42.0,35.0,20.0,-99.9,-99.9,-99.9,0,0,100,30.07,29.33,28,-38,0,0.00
2014-1-26,30.0,24.2,20.0,-99.9,-99.9,-99.9,0,0,100,29.87,29.33,28,12,0,0.00
2014-1-27,49.0,39.8,26.0,-99.9,-99.9,-99.9,0,0,100,29.95,29.54,29,15,0,0.00
2014-1-28,26.0,20.9,17.0,-99.9,-99.9,-99.9,0,0,100,30.27,29.95,21,10,0,0.00
2014-1-29,27.0,21.6,17.0,-99.9,-99.9,-99.9,0,0,100,30.18,29.97,16,9,0,0.00
2014-1-30,29.0,23.6,18.0,-99.9,-99.9,-99.9,0,0,100,30.41,30.18,15,8,0,0.00
2014-1-31,43.0,37.9,35.0,-99.9,-99.9,-99.9,0,0,100,30.17,30.00,16,9,0,0.00
2014-2-1,44.0,37.8,36.0,-99.9,-99.9,-99.9,0,0,100,30.31,30.02,12,6,0,0.00
2014-2-2,48.0,42.9,37.0,-99.9,-99.9,-99.9,0,0,100,30.02,29.85,10,5,0,0.00
2014-2-3,45.0,37.0,32.0,-99.9,-99.9,-99.9,0,0,100,30.23,30.00,15,10,0,0.00
2014-2-4,40.0,31.4,26.0,-99.9,-99.9,-99.9,0,0,100,30.41,30.23,14,8,0,0.00
2014-2-5,36.0,33.4,31.0,-99.9,-99.9,-99.9,0,0,100,30.34,29.54,18,9,0,0.00
2014-2-6,36.0,29.0,25.0,-99.9,-99.9,-99.9,0,0,100,30.20,29.83,18,9,0,0.00
2014-2-7,34.0,29.4,24.0,-99.9,-99.9,-99.9,0,0,100,30.24,30.13,11,7,0,0.00
2014-2-8,32.0,28.2,23.0,-99.9,-99.9,-99.9,0,0,100,30.27,30.07,14,7,0,0.00
2014-2-9,34.0,30.2,26.0,-99.9,-99.9,-99.9,0,0,100,30.09,29.92,16,8,0,0.00
2014-2-10,32.0,28.1,24.0,-99.9,-99.9,-99.9,0,0,100,30.17,29.87,19,11,0,0.00
2014-2-11,28.0,23.3,18.0,-99.9,-99.9,-99.9,0,0,100,30.36,30.17,16,10,0,0.00
2014-2-12,31.0,21.9,12.0,-99.9,-99.9,-99.9,0,0,100,30.52,30.36,20,9,0,0.00
2014-2-13,43.0,36.7,26.0,-99.9,-99.9,-99.9,0,0,100,30.38,29.11,22,12,0,0.00
2014-2-14,41.0,38.0,34.0,-99.9,-99.9,-99.9,0,0,100,29.71,28.77,29,15,0,0.00
2014-2-15,38.0,34.3,32.0,-99.9,-99.9,-99.9,0,0,100,29.79,29.32,36,12,0,0.00
2014-2-16,35.0,30.4,27.0,-99.9,-99.9,-99.9,0,0,100,29.91,29.34,35,15,0,0.00
2014-2-17,33.0,26.2,19.0,-99.9,-99.9,-99.9,0,0,100,30.33,29.91,24,13,0,0.00
2014-2-18,39.0,30.1,19.0,-99.9,-99.9,-99.9,0,0,100,30.33,29.80,24,12,0,0.00
2014-2-19,46.0,36.2,29.0,-99.9,-99.9,-99.9,0,0,100,30.07,29.62,22,9,0,0.00
2014-2-20,50.0,41.9,37.0,-99.9,-99.9,-99.9,0,0,100,30.19,29.78,14,8,0,0.00
2014-2-21,54.0,42.5,37.0,-99.9,-99.9,-99.9,0,0,100,30.12,29.68,20,8,0,0.00
2014-2-22,49.0,44.5,40.0,-99.9,-99.9,-99.9,0,0,100,29.97,29.82,24,12,0,0.00
2014-2-23,50.0,44.4,40.0,-99.9,-99.9,-99.9,0,0,100,29.98,29.75,14,7,0,0.00
2014-2-24,46.0,37.2,28.0,-99.9,-99.9,-99.9,0,0,100,29.93,29.70,24,14,0,0.00
2014-2-25,32.0,27.8,25.0,-99.9,-99.9,-99.9,0,0,100,29.98,29.83,19,12,0,0.00
2014-2-26,33.0,27.2,22.0,-99.9,-99.9,-99.9,0,0,100,29.92,29.73,23,10,0,0.00
2014-2-27,32.0,24.2,15.0,-99.9,-99.9,-99.9,0,0,100,29.86,29.56,21,11,0,0.00
2014-2-28,27.0,20.1,14.0,-99.9,-99.9,-99.9,0,0,100,30.37,29.86,29,13,0,0.00
2014-3-1,38.0,32.8,21.0,-99.9,-99.9,-99.9,0,0,100,30.40,30.10,17,10,0,0.00
2014-3-2,38.0,37.0,35.0,-99.9,-99.9,-99.9,0,0,100,30.10,29.91,12,6,0,0.00
2014-3-3,36.0,25.9,20.0,-99.9,-99.9,-99.9,0,0,100,30.25,29.91,18,13,0,0.00
2014-3-4,31.0,24.7,15.0,-99.9,-99.9,-99.9,0,0,100,30.34,30.23,14,8,0,0.00
2014-3-5,35.0,29.7,25.0,-99.9,-99.9,-99.9,0,0,100,30.39,30.19,19,10,0,0.00
2014-3-6,31.0,24.4,18.0,-99.9,-99.9,-99.9,0,0,100,30.56,30.39,19,11,0,0.00
2014-3-7,39.0,32.9,20.0,-99.9,-99.9,-99.9,0,0,100,30.49,29.89,13,7,0,0.00
2014-3-8,57.0,41.8,32.0,-99.9,-99.9,-99.9,0,0,100,29.89,29.64,16,10,0,0.00
2014-3-9,43.0,38.3,34.0,-99.9,-99.9,-99.9,0,0,100,29.90,29.80,20,10,0,0.00
2014-3-10,43.0,37.0,32.0,-99.9,-99.9,-99.9,0,0,100,29.88,29.65,12,7,0,0.00
2014-3-11,60.0,48.9,37.0,-99.9,-99.9,-99.9,0,0,100,29.68,29.49,24,9,0,0.00
2014-3-12,54.0,46.2,41.0,-99.9,-99.9,-99.9,0,0,100,29.68,28.93,25,10,0,0.00
2014-3-13,52.0,28.5,20.0,-99.9,-99.9,-99.9,0,0,100,29.88,28.91,31,18,0,0.00
2014-3-14,41.0,29.3,19.0,-99.9,-99.9,-99.9,0,0,100,30.17,29.88,21,13,0,0.00
2014-3-15,52.0,45.8,40.0,-99.9,-99.9,-99.9,0,0,100,29.95,29.66,22,12,0,0.00
2014-3-16,45.0,35.5,32.0,-99.9,-99.9,-99.9,0,0,100,30.15,29.85,21,13,0,0.00
2014-3-17,31.0,26.6,22.0,-99.9,-99.9,-99.9,0,0,100,30.12,30.00,19,10,0,0.00
2014-3-18,38.0,31.5,23.0,-99.9,-99.9,-99.9,0,0,100,30.31,30.15,17,9,0,0.00
2014-3-19,42.0,35.5,28.0,-99.9,-99.9,-99.9,0,0,100,30.34,29.98,19,9,0,0.00
2014-3-20,53.0,47.2,39.0,-99.9,-99.9,-99.9,0,0,100,29.96,29.59,25,12,0,0.00
2014-3-21,45.0,41.4,37.0,-99.9,-99.9,-99.9,0,0,100,30.01,29.74,23,13,0,0.00
2014-3-22,60.0,45.1,34.0,-99.9,-99.9,-99.9,0,0,100,30.03,29.64,24,12,0,0.00
2014-3-23,44.0,39.9,34.0,-99.9,-99.9,-99.9,0,0,100,29.97,29.85,23,11,0,0.00
2014-3-24,34.0,28.5,21.0,-99.9,-99.9,-99.9,0,0,100,30.12,29.97,26,14,0,0.00
2014-3-25,35.0,32.7,27.0,-99.9,-99.9,-99.9,0,0,100,30.12,29.85,18,9,0,0.00
2014-3-26,37.0,32.8,28.0,-99.9,-99.9,-99.9,0,0,100,29.93,29.46,43,26,0,0.00
2014-3-27,39.0,31.8,25.0,-99.9,-99.9,-99.9,0,0,100,30.29,29.93,24,14,0,0.00
2014-3-28,52.0,46.0,39.0,-99.9,-99.9,-99.9,0,0,100,30.25,29.97,27,14,0,0.00
2014-3-29,53.0,46.6,40.0,-99.9,-99.9,-99.9,0,0,100,30.19,29.90,13,6,0,0.00
2014-3-30,57.0,47.1,39.0,-99.9,-99.9,-99.9,0,0,100,29.90,29.51,28,14,0,0.00
2014-3-31,41.0,38.4,36.0,-99.9,-99.9,-99.9,0,0,100,29.92,29.60,28,17,0,0.00
2014-4-1,49.0,42.5,39.0,-99.9,-99.9,-99.9,0,0,100,30.07,29.92,23,12,0,0.00
2014-4-2,51.0,43.4,37.0,-99.9,-99.9,-99.9,0,0,100,30.10,30.00,17,7,0,0.00
2014-4-3,55.0,44.7,40.0,-99.9,-99.9,-99.9,0,0,100,30.08,30.01,20,8,0,0.00
2014-4-4,48.0,43.3,40.0,-99.9,-99.9,-99.9,0,0,100,30.12,29.83,22,10,0,0.00
2014-4-5,54.0,47.1,41.0,-99.9,-99.9,-99.9,0,0,100,29.91,29.61,20,11,0,0.00
2014-4-6,51.0,43.2,36.0,-99.9,-99.9,-99.9,0,0,100,30.15,29.91,20,10,0,0.00
2014-4-7,49.0,45.6,41.0,-99.9,-99.9,-99.9,0,0,100,30.21,29.87,22,7,0,0.00
2014-4-8,54.0,49.6,47.0,-99.9,-99.9,-99.9,0,0,100,29.87,29.36,28,14,0,0.00
2014-4-9,59.0,51.7,46.0,-99.9,-99.9,-99.9,0,0,100,29.90,29.48,21,12,0,0.00
2014-4-10,49.0,46.5,38.0,-99.9,-99.9,-99.9,0,0,100,30.16,29.90,24,13,0,0.00
2014-4-11,59.0,52.1,47.0,-99.9,-99.9,-99.9,0,0,100,30.04,29.92,18,10,0,0.00
2014-4-12,68.0,55.5,47.0,-99.9,-99.9,-99.9,0,0,100,30.20,29.93,20,10,0,0.00
2014-4-13,54.0,50.5,46.0,-99.9,-99.9,-99.9,0,0,100,30.23,30.05,17,9,0,0.00
2014-4-14,62.0,55.9,52.0,-99.9,-99.9,-99.9,0,0,100,30.06,29.93,30,17,0,0.00
2014-4-15,58.0,54.4,51.0,-99.9,-99.9,-99.9,0,0,100,29.93,29.57,33,20,0,0.00
2014-4-16,51.0,41.8,36.0,-99.9,-99.9,-99.9,0,0,100,30.54,29.63,28,16,0,0.00
2014-4-17,43.0,38.9,36.0,-99.9,-99.9,-99.9,0,0,100,30.72,30.54,22,11,0,0.00
2014-4-18,49.0,41.2,35.0,-99.9,-99.9,-99.9,0,0,100,30.62,30.24,18,7,0,0.00
2014-4-19,62.0,50.2,41.0,-99.9,-99.9,-99.9,0,0,100,30.35,30.13,17,8,0,0.00
2014-4-20,52.0,47.0,42.0,-99.9,-99.9,-99.9,0,0,100,30.46,30.32,17,10,0,0.00
2014-4-21,55.0,49.7,39.0,-99.9,-99.9,-99.9,0,0,100,30.32,29.86,15,9,0,0.00
2014-4-22,57.0,53.0,49.0,-99.9,-99.9,-99.9,0,0,100,29.86,29.48,16,10,0,0.00
2014-4-23,55.0,51.7,48.0,-99.9,-99.9,-99.9,0,0,100,29.54,29.35,32,13,0,0.00
2014-4-24,59.0,51.6,45.0,-99.9,-99.9,-99.9,0,0,100,29.86,29.54,38,22,0,0.00
2014-4-25,57.0,50.0,47.0,-99.9,-99.9,-99.9,0,0,100,29.97,29.85,20,11,0,0.00
2014-4-26,50.0,48.2,45.0,-99.9,-99.9,-99.9,0,0,100,29.85,29.71,14,8,0,0.00
2014-4-27,51.0,46.6,45.0,-99.9,-99.9,-99.9,0,0,100,30.00,29.81,10,6,0,0.00
2014-4-28,56.0,49.6,43.0,-99.9,-99.9,-99.9,0,0,100,30.15,29.94,19,13,0,0.00
2014-4-29,48.0,45.7,44.0,-99.9,-99.9,-99.9,0,0,100,30.47,30.15,20,10,0,0.00
2014-4-30,48.0,45.5,43.0,-99.9,-99.9,-99.9,0,0,100,30.48,30.13,21,11,0,0.00
2014-5-1,59.0,53.3,48.0,-99.9,-99.9,-99.9,0,0,100,30.13,29.64,31,13,0,0.00
2014-5-2,65.0,57.4,49.0,-99.9,-99.9,-99.9,0,0,100,29.77,29.63,22,10,0,0.00
2014-5-3,61.0,55.6,48.0,-99.9,-99.9,-99.9,0,0,100,29.85,29.72,20,8,0,0.00
2014-5-4,63.0,56.6,52.0,-99.9,-99.9,-99.9,0,0,100,29.72,29.51,22,13,0,0.00
2014-5-5,65.0,57.9,52.0,-99.9,-99.9,-99.9,0,0,100,29.81,29.58,21,13,0,0.00
2014-5-6,63.0,56.9,50.0,-99.9,-99.9,-99.9,0,0,100,29.97,29.79,19,10,0,0.00
2014-5-7,54.0,54.0,54.0,-99.9,-99.9,-99.9,0,0,100,29.98,29.98,5,5,0,0.00
2014-5-13,50.0,49.4,49.0,-99.9,-99.9,-99.9,0,0,100,30.29,30.26,10,6,0,0.00
2014-5-14,59.0,54.7,49.0,-99.9,-99.9,-99.9,0,0,100,30.31,30.25,11,6,0,0.00
2014-5-15,67.0,61.8,57.0,-99.9,-99.9,-99.9,0,0,100,30.27,30.19,17,8,0,0.00
2014-5-16,65.0,63.0,61.0,-99.9,-99.9,-99.9,0,0,100,30.19,29.96,27,19,0,0.00
2014-5-17,68.0,61.9,59.0,-99.9,-99.9,-99.9,0,0,100,30.01,29.82,33,16,0,0.00
2014-5-18,64.0,58.9,55.0,-99.9,-99.9,-99.9,0,0,100,30.06,29.98,17,8,0,0.00
2014-5-19,65.0,57.4,54.0,-99.9,-99.9,-99.9,0,0,100,30.05,29.96,21,13,0,0.00
2014-5-20,70.0,59.0,54.0,-99.9,-99.9,-99.9,0,0,100,30.00,29.92,17,9,0,0.00
2014-5-21,65.0,59.2,51.0,-99.9,-99.9,-99.9,0,0,100,29.96,29.90,13,7,0,0.00
2014-5-22,59.0,57.3,56.0,-99.9,-99.9,-99.9,0,0,100,29.93,29.82,13,7,0,0.00
2014-5-23,65.0,59.2,56.0,-99.9,-99.9,-99.9,0,0,100,29.91,29.84,14,7,0,0.00
2014-5-24,67.0,58.7,54.0,-99.9,-99.9,-99.9,0,0,100,30.02,29.88,17,10,0,0.00
2014-5-25,61.0,57.5,56.0,-99.9,-99.9,-99.9,0,0,100,30.06,29.98,16,8,0,0.00
2014-5-26,76.0,65.7,55.0,-99.9,-99.9,-99.9,0,0,100,30.03,29.80,20,10,0,0.00
2014-5-27,79.0,65.9,55.0,-99.9,-99.9,-99.9,0,0,100,29.86,29.77,15,8,0,0.00
2014-5-28,55.0,52.6,49.0,-99.9,-99.9,-99.9,0,0,100,30.15,29.82,23,12,0,0.00
2014-5-29,62.0,54.5,46.0,-99.9,-99.9,-99.9,0,0,100,30.18,30.12,17,9,0,0.00
2014-5-30,59.0,54.3,50.0,-99.9,-99.9,-99.9,0,0,100,30.14,29.98,12,6,0,0.00
2014-5-31,62.0,57.3,53.0,-99.9,-99.9,-99.9,0,0,100,30.23,30.00,25,11,0,0.00
2014-6-1,74.0,62.6,52.0,-99.9,-99.9,-99.9,0,0,100,30.28,30.21,16,11,0,0.00
2014-6-2,72.0,64.8,57.0,-99.9,-99.9,-99.9,0,0,100,30.23,30.01,16,10,0,0.00
2014-6-3,69.0,62.9,59.0,-99.9,-99.9,-99.9,0,0,100,30.01,29.88,15,8,0,0.00
2014-6-4,65.0,61.6,58.0,-99.9,-99.9,-99.9,0,0,100,29.88,29.75,11,8,0,0.00
2014-6-5,64.0,62.1,60.0,-99.9,-99.9,-99.9,0,0,100,29.75,29.55,19,9,0,0.00
2014-6-6,75.0,66.7,59.0,-99.9,-99.9,-99.9,0,0,100,29.83,29.68,20,9,0,0.00
2014-6-7,76.0,69.4,62.0,-99.9,-99.9,-99.9,0,0,100,29.90,29.83,17,8,0,0.00
2014-6-8,79.0,70.5,64.0,-99.9,-99.9,-99.9,0,0,100,29.90,29.84,14,7,0,0.00
2014-6-9,73.0,68.5,65.0,-99.9,-99.9,-99.9,0,0,100,29.97,29.88,11,6,0,0.00
2014-6-10,71.0,67.7,64.0,-99.9,-99.9,-99.9,0,0,100,30.03,29.92,19,8,0,0.00
2014-6-11,70.0,65.0,60.0,-99.9,-99.9,-99.9,0,0,100,30.12,30.03,18,10,0,0.00
2014-6-12,69.0,65.1,62.0,-99.9,-99.9,-99.9,0,0,100,30.11,30.02,19,13,0,0.00
2014-6-13,69.0,65.7,63.0,-99.9,-99.9,-99.9,0,0,100,30.02,29.74,17,11,0,0.00
2014-6-14,76.0,68.4,65.0,-99.9,-99.9,-99.9,0,0,100,29.86,29.77,16,6,0,0.00
2014-6-15,79.0,67.9,60.0,-99.9,-99.9,-99.9,0,0,100,30.00,29.86,22,13,0,0.00
2014-6-16,73.0,67.4,61.0,-99.9,-99.9,-99.9,0,0,100,30.10,30.00,15,10,0,0.00
2014-6-17,71.0,67.7,64.0,-99.9,-99.9,-99.9,0,0,100,30.07,29.88,19,11,0,0.00
2014-6-18,85.0,76.3,65.0,-99.9,-99.9,-99.9,0,0,100,29.89,29.72,20,11,0,0.00
2014-6-19,78.0,73.1,69.0,-99.9,-99.9,-99.9,0,0,100,29.94,29.86,19,10,0,0.00
2014-6-20,76.0,68.0,61.0,-99.9,-99.9,-99.9,0,0,100,29.92,29.84,18,8,0,0.00
2014-6-21,68.0,64.1,58.0,-99.9,-99.9,-99.9,0,0,100,29.94,29.85,17,9,0,0.00
2014-6-22,72.0,65.6,60.0,-99.9,-99.9,-99.9,0,0,100,30.00,29.89,16,7,0,0.00
2014-6-23,70.0,65.8,61.0,-99.9,-99.9,-99.9,0,0,100,30.14,30.00,14,6,0,0.00
2014-6-24,70.0,64.4,63.0,-99.9,-99.9,-99.9,0,0,100,30.16,30.03,19,10,0,0.00
2014-6-25,76.0,71.9,68.0,-99.9,-99.9,-99.9,0,0,100,30.02,29.88,18,12,0,0.00
2014-6-26,78.0,70.6,63.0,-99.9,-99.9,-99.9,0,0,100,29.95,29.76,14,9,0,0.00
2014-6-27,75.0,68.0,61.0,-99.9,-99.9,-99.9,0,0,100,30.16,29.95,20,10,0,0.00
2014-6-28,72.0,68.1,61.0,-99.9,-99.9,-99.9,0,0,100,30.24,30.16,13,7,0,0.00
2014-6-29,74.0,67.5,63.0,-99.9,-99.9,-99.9,0,0,100,30.24,30.11,16,8,0,0.00
2014-6-30,75.0,71.5,67.0,-99.9,-99.9,-99.9,0,0,100,30.11,29.93,20,13,0,0.00
2014-7-1,76.0,72.6,70.0,-99.9,-99.9,-99.9,0,0,100,29.94,29.84,19,13,0,0.00
2014-7-2,78.0,75.3,72.0,-99.9,-99.9,-99.9,0,0,100,29.94,29.82,22,14,0,0.00
2014-7-3,82.0,75.7,72.0,-99.9,-99.9,-99.9,0,0,100,29.97,29.89,19,11,0,0.00
2014-7-4,77.0,71.4,64.0,-99.9,-99.9,-99.9,0,0,100,29.97,29.67,31,13,0,0.00
2014-7-5,78.0,70.0,62.0,-99.9,-99.9,-99.9,0,0,100,29.99,29.71,26,15,0,0.00
2014-7-6,78.0,69.9,65.0,-99.9,-99.9,-99.9,0,0,100,30.00,29.89,21,12,0,0.00
2014-7-7,74.0,65.9,67.0,-99.9,-99.9,-99.9,0,0,100,29.90,29.73,22,16,0,0.00
2014-7-11,80.0,73.6,69.0,-99.9,0.0,200.0,0,0,100,30.18,30.10,12,6,0,0.00
2014-7-12,78.0,72.5,67.0,-99.9,0.0,200.0,0,0,100,30.20,30.12,16,8,0,0.00
2014-7-13,76.0,72.6,70.0,-99.9,0.0,200.0,0,0,100,30.13,29.93,19,12,0,0.00
2014-7-14,78.0,74.0,73.0,-99.9,0.0,200.0,0,0,100,29.92,29.85,19,12,0,0.00
2014-7-15,76.0,74.3,73.0,-99.9,0.0,200.0,0,0,100,29.88,29.77,18,13,0,0.00
2014-7-16,75.0,72.8,71.0,-99.9,0.0,200.0,0,0,100,29.81,29.75,27,12,0,0.00
2014-7-17,81.0,73.1,70.0,-99.9,0.0,200.0,0,0,100,30.03,29.82,14,6,0,0.00
2014-7-18,79.0,72.2,67.0,-99.9,0.0,200.0,0,0,100,30.20,30.03,12,8,0,0.00
2014-7-19,76.0,71.5,67.0,-99.9,0.0,200.0,0,0,100,30.23,30.17,12,6,0,0.00
2014-7-20,74.0,69.2,64.0,-99.9,0.0,200.0,0,0,100,30.18,30.09,13,6,0,0.00
2014-7-21,78.0,70.1,64.0,-99.9,0.0,200.0,0,0,100,30.15,30.08,13,8,0,0.00
2014-7-22,78.0,73.1,68.0,-99.9,0.0,200.0,0,0,100,30.13,30.00,18,8,0,0.00
2014-7-23,78.0,74.6,72.0,-99.9,0.0,200.0,0,0,100,30.00,29.77,22,14,0,0.00
2014-7-24,78.0,73.1,68.0,-99.9,0.0,200.0,0,0,100,29.86,29.71,15,7,0,0.00
2014-7-25,76.0,71.1,65.0,-99.9,0.0,200.0,0,0,100,29.96,29.85,16,9,0,0.00
2014-7-26,75.0,71.3,67.0,-99.9,0.0,200.0,0,0,100,29.97,29.89,19,9,0,0.00
2014-7-27,74.0,71.4,71.0,-99.9,0.0,200.0,0,0,100,29.89,29.67,20,11,0,0.00
2014-7-28,79.0,74.3,72.0,-99.9,0.0,200.0,0,0,100,29.68,29.46,19,12,0,0.00
2014-7-29,76.0,71.5,67.0,-99.9,0.0,200.0,0,0,100,29.89,29.54,15,9,0,0.00
2014-7-30,76.0,70.7,65.0,-99.9,0.0,200.0,0,0,100,30.02,29.91,16,8,0,0.00
2014-7-31,74.0,67.5,67.0,-99.9,0.0,200.0,0,0,100,30.14,30.02,17,9,0,0.00
2014-8-1,75.0,72.8,70.0,-99.9,0.0,200.0,0,0,100,30.21,30.14,15,8,0,0.00
2014-8-2,73.0,67.6,63.0,-99.9,0.0,200.0,0,0,100,30.20,30.07,13,7,0,0.00
2014-8-3,70.0,66.5,64.0,-99.9,0.0,200.0,0,0,100,30.11,30.01,11,6,0,0.00
2014-8-4,77.0,71.4,67.0,-99.9,0.0,200.0,0,0,100,30.02,29.98,18,9,0,0.00
2014-8-5,79.0,74.2,70.0,-99.9,0.0,200.0,0,0,100,30.00,29.88,13,8,0,0.00
2014-8-6,79.0,73.8,70.0,-99.9,0.0,200.0,0,0,100,29.87,29.73,22,7,0,0.00
2014-8-7,79.0,71.1,65.0,-99.9,0.0,200.0,0,0,100,29.90,29.80,19,9,0,0.00
2014-8-8,81.0,72.0,63.0,-99.9,0.0,200.0,0,0,100,29.98,29.90,13,9,0,0.00
2014-8-9,79.0,73.1,68.0,-99.9,0.0,200.0,0,0,100,30.06,29.97,14,9,0,0.00
2014-8-10,83.0,73.1,68.0,-99.9,0.0,200.0,0,0,100,30.11,30.04,13,7,0,0.00
2014-8-11,76.0,72.4,68.0,-99.9,0.0,200.0,0,0,100,30.14,30.09,17,8,0,0.00
2014-8-12,76.0,71.8,71.0,-99.9,0.0,200.0,0,0,100,30.10,30.00,21,13,0,0.00
2014-8-13,74.0,72.6,70.0,-99.9,0.0,200.0,0,0,100,29.99,29.58,32,21,0,0.00
2014-8-14,75.0,70.6,66.0,-99.9,0.0,200.0,0,0,100,29.82,29.62,15,9,0,0.00
2014-8-15,73.0,70.3,64.0,-99.9,0.0,200.0,0,0,100,29.92,29.79,18,10,0,0.00
2014-8-16,74.0,69.0,62.0,-99.9,0.0,200.0,0,0,100,29.96,29.90,20,10,0,0.00
2014-8-17,79.0,70.9,68.0,-99.9,0.0,200.0,0,0,100,29.89,29.73,14,8,0,0.00
2014-8-18,77.0,69.9,64.0,-99.9,0.0,200.0,0,0,100,29.84,29.75,17,8,0,0.00
2014-8-19,74.0,69.7,62.0,-99.9,0.0,200.0,0,0,100,29.92,29.83,14,8,0,0.00
2014-8-20,77.0,71.4,65.0,-99.9,0.0,200.0,0,0,100,30.01,29.95,14,7,0,0.00
2014-8-21,77.0,69.2,63.0,-99.9,0.0,200.0,0,0,100,30.05,29.99,13,8,0,0.00
2014-8-22,74.0,69.4,66.0,-99.9,0.0,200.0,0,0,100,30.04,30.01,10,7,0,0.00
2014-8-23,72.0,67.6,63.0,-99.9,0.0,200.0,0,0,100,30.08,30.02,17,10,0,0.00
2014-8-24,76.0,68.2,61.0,-99.9,0.0,200.0,0,0,100,30.10,30.06,13,8,0,0.00
2014-8-25,78.0,70.5,65.0,-99.9,0.0,200.0,0,0,100,30.12,30.07,14,6,0,0.00
2014-8-26,74.0,71.3,68.0,-99.9,0.0,200.0,0,0,100,30.15,30.05,13,8,0,0.00
2014-8-27,79.0,73.3,67.0,-99.9,0.0,200.0,0,0,100,30.05,29.82,20,10,0,0.00
2014-8-28,80.0,74.8,70.0,-99.9,0.0,200.0,0,0,100,29.94,29.74,19,11,0,0.00
2014-8-29,73.0,67.2,60.0,-99.9,0.0,200.0,0,0,100,30.23,29.94,15,10,0,0.00
2014-8-30,70.0,68.0,65.0,-99.9,0.0,200.0,0,0,100,30.28,30.13,16,11,0,0.00
2014-8-31,76.0,72.7,70.0,-99.9,0.0,200.0,0,0,100,30.13,29.95,19,13,0,0.00
2014-9-1,81.0,76.0,73.0,-99.9,0.0,200.0,0,0,100,29.96,29.88,17,8,0,0.00
2014-9-2,82.0,76.0,72.0,-99.9,0.0,200.0,0,0,100,29.92,29.75,19,8,0,0.00
2014-9-3,83.0,78.0,75.0,-99.9,0.0,200.0,0,0,100,30.03,29.69,20,10,0,0.00
2014-9-4,82.0,76.2,71.0,-99.9,0.0,200.0,0,0,100,30.16,30.08,18,10,0,0.00
2014-9-5,78.0,74.3,71.0,-99.9,0.0,200.0,0,0,100,30.15,30.00,21,9,0,0.00
2014-9-6,79.0,76.0,74.0,-99.9,0.0,200.0,0,0,100,30.00,29.77,22,13,0,0.00
2014-9-7,78.0,70.6,65.0,-99.9,0.0,200.0,0,0,100,30.14,29.85,22,9,0,0.00
2014-9-8,74.0,68.2,61.0,-99.9,0.0,200.0,0,0,100,30.32,30.21,14,8,0,0.00
2014-9-9,72.0,67.7,64.0,-99.9,0.0,200.0,0,0,100,30.30,30.13,15,7,0,0.00
2014-9-10,73.0,68.0,65.0,-99.9,0.0,200.0,0,0,100,30.13,30.00,12,8,0,0.00
2014-9-11,75.0,69.7,65.0,-99.9,0.0,200.0,0,0,100,30.01,29.78,22,10,0,0.00
2014-9-12,73.0,66.2,60.0,-99.9,0.0,200.0,0,0,100,30.18,29.84,19,10,0,0.00
2014-9-13,70.0,63.3,57.0,-99.9,0.0,200.0,0,0,100,30.21,30.05,18,9,0,0.00
2014-9-14,69.0,61.1,56.0,-99.9,0.0,200.0,0,0,100,30.17,30.06,23,11,0,0.00
2014-9-15,66.0,60.0,52.0,-99.9,0.0,200.0,0,0,100,30.19,30.07,15,8,0,0.00
2014-9-16,68.0,65.6,58.0,-99.9,0.0,200.0,0,0,100,30.06,29.91,15,7,0,0.00
2014-9-17,70.0,65.6,59.0,-99.9,0.0,200.0,0,0,100,29.98,29.90,20,10,0,0.00
2014-9-18,74.0,69.3,63.0,-99.9,0.0,200.0,0,0,100,30.05,29.90,15,7,0,0.00
2014-9-19,64.0,56.7,51.0,-99.9,0.0,200.0,0,0,100,30.40,30.05,17,10,0,0.00
2014-9-20,69.0,66.0,62.0,-99.9,0.0,200.0,0,0,100,30.31,30.12,21,13,0,0.00
2014-9-21,73.0,70.2,69.0,-99.9,0.0,200.0,0,0,100,30.07,29.53,14,8,0,0.00
2014-9-22,73.0,68.2,57.0,-99.9,0.0,200.0,0,0,100,30.05,29.52,22,12,0,0.00
2014-9-23,66.0,59.0,52.0,-99.9,0.0,200.0,0,0,100,30.36,30.05,17,8,0,0.00
2014-9-24,68.0,63.8,55.0,-99.9,0.0,200.0,0,0,100,30.57,30.41,16,10,0,0.00
2014-9-25,63.0,60.3,57.0,-99.9,0.0,200.0,0,0,100,30.51,30.17,11,7,0,0.00
2014-9-26,72.0,64.5,60.0,-99.9,0.0,200.0,0,0,100,30.17,30.10,17,10,0,0.00
2014-9-27,76.0,70.2,58.0,-99.9,0.0,200.0,0,0,100,30.14,30.09,11,7,0,0.00
2014-9-28,78.0,71.0,65.0,-99.9,0.0,200.0,0,0,100,30.13,29.97,14,8,0,0.00
2014-9-29,71.0,67.6,64.0,-99.9,0.0,200.0,0,0,100,29.97,29.89,12,6,0,0.00
2014-9-30,64.0,60.2,59.0,-99.9,0.0,200.0,0,0,100,29.98,29.93,15,10,0,0.00
2014-10-1,62.0,60.9,59.0,-99.9,0.0,200.0,0,0,100,30.01,29.93,17,12,0,0.00
2014-10-2,62.0,58.7,54.0,-99.9,0.0,200.0,0,0,100,30.10,30.00,21,13,0,0.00
2014-10-3,60.0,56.9,53.0,-99.9,0.0,200.0,0,0,100,30.08,29.86,14,9,0,0.00
2014-10-4,68.0,61.8,57.0,-99.9,0.0,200.0,0,0,100,29.86,29.50,23,10,0,0.00
2014-10-5,67.0,57.9,53.0,-99.9,0.0,200.0,0,0,100,29.92,29.52,16,10,0,0.00
2014-10-6,65.0,60.0,50.0,-99.9,0.0,200.0,0,0,100,30.12,29.92,21,12,0,0.00
2014-10-7,69.0,66.2,64.0,-99.9,0.0,200.0,0,0,100,30.12,29.96,26,16,0,0.00
2014-10-8,70.0,67.9,65.0,-99.9,0.0,200.0,0,0,100,29.96,29.71,23,14,0,0.00
2014-10-9,65.0,62.1,55.0,-99.9,0.0,200.0,0,0,100,29.95,29.83,20,11,0,0.00
2014-10-10,63.0,59.5,54.0,-99.9,0.0,200.0,0,0,100,30.10,29.95,16,8,0,0.00
2014-10-11,57.0,53.0,49.0,-99.9,0.0,200.0,0,0,100,30.10,30.00,13,7,0,0.00
2014-10-12,62.0,53.1,47.0,-99.9,0.0,200.0,0,0,100,30.25,30.09,15,10,0,0.00
2014-10-13,64.0,56.9,48.0,-99.9,0.0,200.0,0,0,100,30.34,30.25,16,8,0,0.00
2014-10-14,72.0,67.4,64.0,-99.9,0.0,200.0,0,0,100,30.25,30.14,16,10,0,0.00
2014-10-15,71.0,68.5,67.0,-99.9,0.0,200.0,0,0,100,30.14,29.94,17,12,0,0.00
2014-10-16,70.0,67.9,65.0,-99.9,0.0,200.0,0,0,100,29.94,29.67,26,14,0,0.00
2014-10-17,68.0,65.5,63.0,-99.9,0.0,200.0,0,0,100,29.68,29.59,23,10,0,0.00
2014-10-18,69.0,65.3,61.0,-99.9,0.0,200.0,0,0,100,29.67,29.47,20,11,0,0.00
2014-10-19,60.0,54.6,48.0,-99.9,0.0,200.0,0,0,100,29.91,29.58,24,13,0,0.00
2014-10-20,56.0,49.3,41.0,-99.9,0.0,200.0,0,0,100,30.06,29.94,20,9,0,0.00
2014-10-21,64.0,60.5,53.0,-99.9,0.0,200.0,0,0,100,29.93,29.85,18,10,0,0.00
2014-10-22,60.0,57.4,55.0,-99.9,0.0,200.0,0,0,100,29.91,29.65,30,14,0,0.00
2014-10-23,60.0,58.2,55.0,-99.9,0.0,200.0,0,0,100,29.65,29.46,25,18,0,0.00
2014-10-24,56.0,53.9,52.0,-99.9,0.0,200.0,0,0,100,29.70,29.55,26,16,0,0.00
2014-10-25,67.0,57.0,50.0,-99.9,0.0,200.0,0,0,100,29.75,29.50,17,8,0,0.00
2014-10-26,63.0,57.6,51.0,-99.9,0.0,200.0,0,0,100,29.70,29.41,25,14,0,0.00
2014-10-27,65.0,56.1,49.0,-99.9,0.0,200.0,0,0,100,29.99,29.70,19,10,0,0.00
2014-10-28,67.0,61.1,49.0,-99.9,0.0,200.0,0,0,100,30.04,29.90,18,9,0,0.00
2014-10-29,68.0,65.1,55.0,-99.9,0.0,200.0,0,0,100,29.91,29.75,21,12,0,0.00
2014-10-30,62.0,56.0,51.0,-99.9,0.0,200.0,0,0,100,29.93,29.84,16,9,0,0.00
2014-10-31,56.0,51.3,46.0,-99.9,0.0,200.0,0,0,100,29.98,29.87,18,8,0,0.00
2014-11-1,54.0,50.6,46.0,-99.9,0.0,200.0,0,0,100,29.87,29.65,27,16,0,0.00
2014-11-2,46.0,41.5,37.0,-99.9,0.0,200.0,0,0,100,29.79,29.49,33,23,0,0.00
2014-11-3,54.0,46.6,39.0,-99.9,0.0,200.0,0,0,100,30.04,29.79,23,12,0,0.00
2014-11-4,61.0,57.5,49.0,-99.9,0.0,200.0,0,0,100,30.10,30.02,13,7,0,0.00
2014-11-7,52.0,49.0,43.0,-99.9,0.0,200.0,0,0,100,29.76,29.41,30,14,0,0.00
2014-11-8,48.0,43.3,39.0,-99.9,0.0,200.0,0,0,100,29.95,29.76,16,8,0,0.00
2014-11-9,58.0,52.1,45.0,-99.9,0.0,200.0,0,0,100,29.96,29.84,14,6,0,0.00
2014-11-10,57.0,51.6,42.0,-99.9,0.0,200.0,0,0,100,30.18,29.96,12,6,0,0.00
2014-11-11,59.0,54.9,47.0,-99.9,0.0,200.0,0,0,100,30.17,29.94,10,4,0,0.00
2014-11-12,62.0,52.3,48.0,-99.9,0.0,200.0,0,0,100,29.94,29.81,21,6,0,0.00
2014-11-13,52.0,47.1,40.0,-99.9,0.0,200.0,0,0,100,30.04,29.89,21,9,0,0.00
2014-11-18,57.0,42.4,31.0,-99.9,0.0,200.0,0,0,100,29.92,29.41,21,13,0,0.00
2014-11-19,38.0,32.0,27.0,-99.9,0.0,200.0,0,0,100,30.13,29.93,19,10,0,0.00
2014-11-20,50.0,43.6,37.0,-99.9,0.0,200.0,0,0,100,30.05,29.74,27,12,0,0.00
2014-11-21,38.0,34.4,31.0,-99.9,0.0,200.0,0,0,100,30.38,29.88,25,15,0,0.00
2014-11-22,48.0,37.6,28.0,-99.9,0.0,200.0,0,0,100,30.42,30.08,27,13,0,0.00
2014-11-23,58.0,50.7,48.0,-99.9,0.0,200.0,0,0,100,30.13,30.08,24,10,0,0.00
2014-11-24,63.0,58.3,48.0,-99.9,0.0,200.0,0,0,100,30.08,29.62,32,18,0,0.00
2014-11-25,63.0,58.4,52.0,-99.9,0.0,200.0,0,0,100,30.08,29.71,19,10,0,0.00
2014-11-26,52.0,46.3,42.0,-99.9,0.0,200.0,0,0,100,30.15,29.51,29,12,0,0.00
2014-11-27,43.0,38.8,36.0,-99.9,0.0,200.0,0,0,100,29.95,29.53,32,13,0,0.00
2014-11-28,38.0,34.4,31.0,-99.9,0.0,200.0,0,0,100,30.18,29.92,26,16,0,0.00
2014-11-29,37.0,31.7,27.0,-99.9,0.0,200.0,0,0,100,30.32,30.18,13,6,0,0.00
2014-11-30,57.0,53.3,47.0,-99.9,0.0,200.0,0,0,100,30.22,30.04,23,13,0,0.00
2014-12-1,62.0,55.7,47.0,-99.9,0.0,200.0,0,0,100,30.34,30.00,26,12,0,0.00
2014-12-2,47.0,40.5,38.0,-99.9,0.0,200.0,0,0,100,30.63,30.34,16,10,0,0.00
2014-12-3,57.0,51.7,42.0,-99.9,0.0,200.0,0,0,100,30.35,29.88,24,13,0,0.00
2014-12-4,46.0,41.5,35.0,-99.9,0.0,200.0,0,0,100,30.50,30.05,22,9,0,0.00
2014-12-5,46.0,39.8,32.0,-99.9,0.0,200.0,0,0,100,30.62,30.38,23,11,0,0.00
2014-12-6,52.0,47.8,42.0,-99.9,0.0,200.0,0,0,100,30.38,30.08,21,9,0,0.00
2014-12-7,43.0,37.9,31.0,-99.9,0.0,200.0,0,0,100,30.57,30.12,25,19,0,0.00
2014-12-8,42.0,35.4,31.0,-99.9,0.0,200.0,0,0,100,30.66,30.41,23,10,0,0.00
2014-12-9,55.0,49.1,42.0,-99.9,0.0,200.0,0,0,100,30.41,29.43,33,14,0,0.00
2014-12-10,52.0,42.8,42.0,-99.9,0.0,200.0,0,0,100,29.51,29.39,16,6,0,0.00
2014-12-11,42.0,37.2,35.0,-99.9,0.0,200.0,0,0,100,29.78,29.42,17,11,0,0.00
2014-12-12,41.0,36.1,32.0,-99.9,0.0,200.0,0,0,100,29.85,29.78,15,7,0,0.00
2014-12-13,43.0,38.0,34.0,-99.9,0.0,200.0,0,0,100,29.84,29.74,17,11,0,0.00
2014-12-14,47.0,39.0,35.0,-99.9,0.0,200.0,0,0,100,29.87,29.74,15,10,0,0.00
2014-12-15,46.0,39.2,35.0,-99.9,0.0,200.0,0,0,100,30.10,29.86,11,6,0,0.00
2014-12-16,48.0,43.2,36.0,-99.9,0.0,200.0,0,0,100,30.11,29.86,11,4,0,0.00
2014-12-17,51.0,48.0,45.0,-99.9,0.0,200.0,0,0,100,29.86,29.65,17,8,0,0.00
2014-12-18,45.0,42.1,38.0,-99.9,0.0,200.0,0,0,100,29.84,29.70,22,13,0,0.00
2014-12-19,40.0,37.5,34.0,-99.9,0.0,200.0,0,0,100,30.09,29.83,17,11,0,0.00
2014-12-20,37.0,32.3,32.0,-99.9,0.0,200.0,0,0,100,30.23,30.09,15,12,0,0.00
2014-12-21,41.0,38.3,37.0,-99.9,0.0,200.0,0,0,100,30.30,30.21,14,9,0,0.00
2014-12-22,47.0,41.8,37.0,-99.9,0.0,200.0,0,0,100,30.34,30.23,12,8,0,0.00
2014-12-23,50.0,47.6,44.0,-99.9,0.0,200.0,0,0,100,30.23,30.07,13,8,0,0.00
2014-12-24,59.0,51.7,49.0,-99.9,0.0,200.0,0,0,100,30.07,29.57,26,9,0,0.00
2014-12-25,60.0,54.4,45.0,-99.9,0.0,200.0,0,0,100,29.96,29.50,24,13,0,0.00
2014-12-26,51.0,45.3,40.0,-99.9,0.0,200.0,0,0,100,30.15,29.96,16,7,0,0.00
2014-12-27,55.0,46.5,40.0,-99.9,0.0,200.0,0,0,100,30.20,30.04,11,6,0,0.00
2014-12-28,52.0,49.3,44.0,-99.9,0.0,200.0,0,0,100,30.04,29.75,17,10,0,0.00
2014-12-29,44.0,40.4,36.0,-99.9,0.0,200.0,0,0,100,30.17,29.95,15,9,0,0.00
2014-12-30,36.0,30.2,26.0,-99.9,0.0,200.0,0,0,100,30.31,30.17,17,11,0,0.00
2014-12-31,33.0,27.6,23.0,-99.9,0.0,200.0,0,0,100,30.29,30.13,17,8,0,0.00
2015-1-1,42.0,32.8,27.0,-99.9,0.0,200.0,0,0,100,30.12,29.91,23,12,0,0.00
2015-1-2,42.0,39.4,35.0,-99.9,0.0,200.0,0,0,100,30.40,29.91,26,13,0,0.00